sensor_id;sensor_type;location;lat;lon;timestamp;pressure;altitude;pressure_sealevel;temperature;humidity
8585;BME280;7180;52.742;11.420;2024-01-30T00:01:39;79302.38;;;-142.35;72.71
8585;BME280;7180;52.742;11.420;2024-01-30T00:04:05;79302.38;;;-142.35;72.53
8585;BME280;7180;52.742;11.420;2024-01-30T00:06:30;79302.38;;;-142.35;72.68
8585;BME280;7180;52.742;11.420;2024-01-30T00:08:56;79298.34;;;-142.35;72.64
8585;BME280;7180;52.742;11.420;2024-01-30T00:11:21;79294.31;;;-142.35;72.71
8585;BME280;7180;52.742;11.420;2024-01-30T00:13:47;79294.31;;;-142.35;72.64
8585;BME280;7180;52.742;11.420;2024-01-30T00:16:25;79294.31;;;-142.35;72.51
8585;BME280;7180;52.742;11.420;2024-01-30T00:18:53;79296.31;;;-142.35;72.51
8585;BME280;7180;52.742;11.420;2024-01-30T00:21:19;79296.31;;;-142.35;72.48
8585;BME280;7180;52.742;11.420;2024-01-30T00:23:45;79298.34;;;-142.35;72.66
8585;BME280;7180;52.742;11.420;2024-01-30T00:26:10;79296.31;;;-142.35;72.43
8585;BME280;7180;52.742;11.420;2024-01-30T00:28:37;79298.34;;;-142.35;72.36
8585;BME280;7180;52.742;11.420;2024-01-30T00:31:02;79298.34;;;-142.35;72.49
8585;BME280;7180;52.742;11.420;2024-01-30T00:33:28;79300.34;;;-142.35;72.23
8585;BME280;7180;52.742;11.420;2024-01-30T00:35:53;79302.38;;;-142.35;72.40
8585;BME280;7180;52.742;11.420;2024-01-30T00:38:18;79298.34;;;-142.35;72.41
8585;BME280;7180;52.742;11.420;2024-01-30T00:40:44;79294.31;;;-142.35;72.66
8585;BME280;7180;52.742;11.420;2024-01-30T00:43:09;79294.31;;;-142.35;72.33
8585;BME280;7180;52.742;11.420;2024-01-30T00:45:34;79288.25;;;-142.35;72.46
8585;BME280;7180;52.742;11.420;2024-01-30T00:47:59;79282.19;;;-142.35;72.61
8585;BME280;7180;52.742;11.420;2024-01-30T00:50:25;79282.19;;;-142.35;72.64
8585;BME280;7180;52.742;11.420;2024-01-30T00:52:50;79276.16;;;-142.35;72.61
8585;BME280;7180;52.742;11.420;2024-01-30T00:55:15;79270.09;;;-142.35;72.39
8585;BME280;7180;52.742;11.420;2024-01-30T00:57:41;79268.06;;;-142.35;72.58
8585;BME280;7180;52.742;11.420;2024-01-30T01:00:07;79262.03;;;-142.35;72.37
8585;BME280;7180;52.742;11.420;2024-01-30T01:02:34;79260.00;;;-142.35;72.25
8585;BME280;7180;52.742;11.420;2024-01-30T01:05:00;79258.00;;;-142.35;72.19
8585;BME280;7180;52.742;11.420;2024-01-30T01:07:25;79251.94;;;-142.35;72.56
8585;BME280;7180;52.742;11.420;2024-01-30T01:09:50;79245.88;;;-142.35;72.43
8585;BME280;7180;52.742;11.420;2024-01-30T01:12:15;79237.81;;;-142.35;72.24
8585;BME280;7180;52.742;11.420;2024-01-30T01:14:41;79237.81;;;-142.35;72.18
8585;BME280;7180;52.742;11.420;2024-01-30T01:17:07;79239.84;;;-142.35;72.15
8585;BME280;7180;52.742;11.420;2024-01-30T01:19:32;79235.78;;;-142.35;72.50
8585;BME280;7180;52.742;11.420;2024-01-30T01:21:57;79237.81;;;-142.35;72.26
8585;BME280;7180;52.742;11.420;2024-01-30T01:24:22;79237.81;;;-142.35;72.13
8585;BME280;7180;52.742;11.420;2024-01-30T01:26:48;79229.75;;;-142.35;72.10
8585;BME280;7180;52.742;11.420;2024-01-30T01:29:13;79235.78;;;-142.35;72.01
8585;BME280;7180;52.742;11.420;2024-01-30T01:31:38;79233.78;;;-142.35;72.22
8585;BME280;7180;52.742;11.420;2024-01-30T01:34:11;79251.94;;;-142.35;72.11
8585;BME280;7180;52.742;11.420;2024-01-30T01:36:36;79241.84;;;-142.35;72.41
8585;BME280;7180;52.742;11.420;2024-01-30T01:39:01;79253.97;;;-142.35;72.26
8585;BME280;7180;52.742;11.420;2024-01-30T01:41:31;79258.00;;;-142.35;72.41
8585;BME280;7180;52.742;11.420;2024-01-30T01:43:57;79274.13;;;-142.35;72.95
8585;BME280;7180;52.742;11.420;2024-01-30T01:46:22;79274.13;;;-142.35;72.83
8585;BME280;7180;52.742;11.420;2024-01-30T01:48:48;79284.22;;;-142.35;73.10
8585;BME280;7180;52.742;11.420;2024-01-30T01:51:14;79274.13;;;-142.35;73.09
8585;BME280;7180;52.742;11.420;2024-01-30T01:53:40;79284.22;;;-142.35;73.21
8585;BME280;7180;52.742;11.420;2024-01-30T01:56:06;79292.28;;;-142.35;73.19
8585;BME280;7180;52.742;11.420;2024-01-30T01:58:31;79298.34;;;-142.35;73.28
8585;BME280;7180;52.742;11.420;2024-01-30T02:00:58;79304.38;;;-142.35;73.49
8585;BME280;7180;52.742;11.420;2024-01-30T02:03:24;79298.34;;;-142.35;73.55
8585;BME280;7180;52.742;11.420;2024-01-30T02:05:50;79296.31;;;-142.35;73.72
8585;BME280;7180;52.742;11.420;2024-01-30T02:08:15;79290.25;;;-142.35;73.72
8585;BME280;7180;52.742;11.420;2024-01-30T02:10:41;79292.28;;;-142.35;73.55
8585;BME280;7180;52.742;11.420;2024-01-30T02:13:06;79290.25;;;-142.35;73.92
8585;BME280;7180;52.742;11.420;2024-01-30T02:15:31;79278.16;;;-142.35;73.90
8585;BME280;7180;52.742;11.420;2024-01-30T02:17:56;79274.13;;;-142.35;73.75
8585;BME280;7180;52.742;11.420;2024-01-30T02:20:23;79280.19;;;-142.35;73.68
8585;BME280;7180;52.742;11.420;2024-01-30T02:22:52;79282.19;;;-142.35;73.50
8585;BME280;7180;52.742;11.420;2024-01-30T02:25:17;79270.09;;;-142.35;73.75
8585;BME280;7180;52.742;11.420;2024-01-30T02:27:42;79258.00;;;-142.35;73.29
8585;BME280;7180;52.742;11.420;2024-01-30T02:30:08;79253.97;;;-142.35;73.47
8585;BME280;7180;52.742;11.420;2024-01-30T02:32:33;79270.09;;;-142.35;73.54
8585;BME280;7180;52.742;11.420;2024-01-30T02:34:59;79270.09;;;-142.35;73.53
8585;BME280;7180;52.742;11.420;2024-01-30T02:37:24;79270.09;;;-142.35;73.52
8585;BME280;7180;52.742;11.420;2024-01-30T02:39:49;79270.09;;;-142.35;73.49
8585;BME280;7180;52.742;11.420;2024-01-30T02:42:14;79262.03;;;-142.35;73.66
8585;BME280;7180;52.742;11.420;2024-01-30T02:44:40;79272.09;;;-142.35;73.60
8585;BME280;7180;52.742;11.420;2024-01-30T02:47:05;79262.03;;;-142.35;73.65
8585;BME280;7180;52.742;11.420;2024-01-30T02:49:30;79253.97;;;-142.35;73.46
8585;BME280;7180;52.742;11.420;2024-01-30T02:51:55;79260.00;;;-142.35;73.65
8585;BME280;7180;52.742;11.420;2024-01-30T02:54:21;79264.03;;;-142.35;73.60
8585;BME280;7180;52.742;11.420;2024-01-30T02:56:47;79262.03;;;-142.35;73.25
8585;BME280;7180;52.742;11.420;2024-01-30T02:59:13;79266.06;;;-142.35;73.26
8585;BME280;7180;52.742;11.420;2024-01-30T03:01:45;79262.03;;;-142.35;73.19
8585;BME280;7180;52.742;11.420;2024-01-30T03:04:11;79278.16;;;-142.35;73.34
8585;BME280;7180;52.742;11.420;2024-01-30T03:06:37;79270.09;;;-142.35;73.28
8585;BME280;7180;52.742;11.420;2024-01-30T03:09:02;79245.88;;;-142.35;73.36
8585;BME280;7180;52.742;11.420;2024-01-30T03:11:28;79245.88;;;-142.35;73.38
8585;BME280;7180;52.742;11.420;2024-01-30T03:13:53;79239.84;;;-142.35;73.52
8585;BME280;7180;52.742;11.420;2024-01-30T03:16:18;79229.75;;;-142.35;73.52
8585;BME280;7180;52.742;11.420;2024-01-30T03:18:43;79229.75;;;-142.35;73.55
8585;BME280;7180;52.742;11.420;2024-01-30T03:21:09;79229.75;;;-142.35;73.71
8585;BME280;7180;52.742;11.420;2024-01-30T03:23:34;79219.66;;;-142.35;73.53
8585;BME280;7180;52.742;11.420;2024-01-30T03:25:59;79215.63;;;-142.35;73.80
8585;BME280;7180;52.742;11.420;2024-01-30T03:28:24;79205.53;;;-142.35;73.56
8585;BME280;7180;52.742;11.420;2024-01-30T03:30:50;79205.53;;;-142.35;73.78
8585;BME280;7180;52.742;11.420;2024-01-30T03:33:15;79201.50;;;-142.35;73.78
8585;BME280;7180;52.742;11.420;2024-01-30T03:35:40;79207.56;;;-142.35;73.62
8585;BME280;7180;52.742;11.420;2024-01-30T03:38:05;79203.53;;;-142.35;73.80
8585;BME280;7180;52.742;11.420;2024-01-30T03:40:31;79199.50;;;-142.35;73.60
8585;BME280;7180;52.742;11.420;2024-01-30T03:42:56;79195.44;;;-142.35;73.72
8585;BME280;7180;52.742;11.420;2024-01-30T03:45:21;79197.47;;;-142.35;73.71
8585;BME280;7180;52.742;11.420;2024-01-30T03:47:47;79177.28;;;-142.35;73.53
8585;BME280;7180;52.742;11.420;2024-01-30T03:50:12;79153.09;;;-142.35;73.34
8585;BME280;7180;52.742;11.420;2024-01-30T03:52:37;79134.94;;;-142.35;73.18
8585;BME280;7180;52.742;11.420;2024-01-30T03:55:03;79116.78;;;-142.35;73.19
8585;BME280;7180;52.742;11.420;2024-01-30T03:57:28;79100.63;;;-142.35;73.13
8585;BME280;7180;52.742;11.420;2024-01-30T03:59:53;79088.53;;;-142.35;72.86
8585;BME280;7180;52.742;11.420;2024-01-30T04:02:18;79080.47;;;-142.35;72.68
8585;BME280;7180;52.742;11.420;2024-01-30T04:04:44;79094.59;;;-142.35;72.55
8585;BME280;7180;52.742;11.420;2024-01-30T04:07:09;79090.56;;;-142.35;72.81
8585;BME280;7180;52.742;11.420;2024-01-30T04:09:34;79096.59;;;-142.35;73.04
8585;BME280;7180;52.742;11.420;2024-01-30T04:11:59;79078.44;;;-142.35;73.00
8585;BME280;7180;52.742;11.420;2024-01-30T04:14:25;79066.34;;;-142.35;72.55
8585;BME280;7180;52.742;11.420;2024-01-30T04:16:50;79062.31;;;-142.35;72.73
8585;BME280;7180;52.742;11.420;2024-01-30T04:19:15;79060.28;;;-142.35;72.79
8585;BME280;7180;52.742;11.420;2024-01-30T04:21:41;79060.28;;;-142.35;72.50
8585;BME280;7180;52.742;11.420;2024-01-30T04:24:06;79060.28;;;-142.35;72.76
8585;BME280;7180;52.742;11.420;2024-01-30T04:26:31;79082.47;;;-142.35;72.60
8585;BME280;7180;52.742;11.420;2024-01-30T04:28:56;79084.50;;;-142.35;72.89
8585;BME280;7180;52.742;11.420;2024-01-30T04:31:22;79070.38;;;-142.35;72.97
8585;BME280;7180;52.742;11.420;2024-01-30T04:33:47;79052.22;;;-142.35;72.76
8585;BME280;7180;52.742;11.420;2024-01-30T04:36:12;79050.22;;;-142.35;72.56
8585;BME280;7180;52.742;11.420;2024-01-30T04:38:38;79044.16;;;-142.35;72.79
8585;BME280;7180;52.742;11.420;2024-01-30T04:41:03;79048.19;;;-142.35;72.75
8585;BME280;7180;52.742;11.420;2024-01-30T04:43:29;79046.19;;;-142.35;72.75
8585;BME280;7180;52.742;11.420;2024-01-30T04:45:55;79034.06;;;-142.35;72.56
8585;BME280;7180;52.742;11.420;2024-01-30T04:48:20;79032.06;;;-142.35;72.38
8585;BME280;7180;52.742;11.420;2024-01-30T04:50:45;79034.06;;;-142.35;72.72
8585;BME280;7180;52.742;11.420;2024-01-30T04:53:11;79032.06;;;-142.35;72.58
8585;BME280;7180;52.742;11.420;2024-01-30T04:55:36;79028.00;;;-142.35;72.38
8585;BME280;7180;52.742;11.420;2024-01-30T04:58:01;79028.00;;;-142.35;72.48
8585;BME280;7180;52.742;11.420;2024-01-30T05:00:27;79021.97;;;-142.35;72.51
8585;BME280;7180;52.742;11.420;2024-01-30T05:02:54;79021.97;;;-142.35;72.38
8585;BME280;7180;52.742;11.420;2024-01-30T05:05:20;79021.97;;;-142.35;72.48
8585;BME280;7180;52.742;11.420;2024-01-30T05:07:46;79032.06;;;-142.35;72.75
8585;BME280;7180;52.742;11.420;2024-01-30T05:10:12;79036.09;;;-142.35;72.76
8585;BME280;7180;52.742;11.420;2024-01-30T05:12:38;79044.16;;;-142.35;72.62
8585;BME280;7180;52.742;11.420;2024-01-30T05:15:04;79032.06;;;-142.35;72.67
8585;BME280;7180;52.742;11.420;2024-01-30T05:17:29;79023.97;;;-142.35;72.55
8585;BME280;7180;52.742;11.420;2024-01-30T05:19:55;79015.91;;;-142.35;72.54
8585;BME280;7180;52.742;11.420;2024-01-30T05:22:20;79013.91;;;-142.35;72.49
8585;BME280;7180;52.742;11.420;2024-01-30T05:24:45;79011.88;;;-142.35;72.61
8585;BME280;7180;52.742;11.420;2024-01-30T05:27:10;79005.81;;;-142.35;72.47
8585;BME280;7180;52.742;11.420;2024-01-30T05:29:38;79003.81;;;-142.35;72.38
8585;BME280;7180;52.742;11.420;2024-01-30T05:32:03;79007.84;;;-142.35;72.27
8585;BME280;7180;52.742;11.420;2024-01-30T05:34:30;79009.88;;;-142.35;72.36
8585;BME280;7180;52.742;11.420;2024-01-30T05:36:55;79011.88;;;-142.35;72.16
8585;BME280;7180;52.742;11.420;2024-01-30T05:39:21;79023.97;;;-142.35;72.24
8585;BME280;7180;52.742;11.420;2024-01-30T05:41:46;79030.03;;;-142.35;71.94
8585;BME280;7180;52.742;11.420;2024-01-30T05:44:11;79032.06;;;-142.35;71.77
8585;BME280;7180;52.742;11.420;2024-01-30T05:46:37;79034.06;;;-142.35;71.69
8585;BME280;7180;52.742;11.420;2024-01-30T05:49:02;79034.06;;;-142.35;71.55
8585;BME280;7180;52.742;11.420;2024-01-30T05:51:27;79034.06;;;-142.35;71.67
8585;BME280;7180;52.742;11.420;2024-01-30T05:53:53;79036.09;;;-142.35;71.56
8585;BME280;7180;52.742;11.420;2024-01-30T05:56:19;79044.16;;;-142.35;71.51
8585;BME280;7180;52.742;11.420;2024-01-30T05:58:44;79048.19;;;-142.35;71.60
8585;BME280;7180;52.742;11.420;2024-01-30T06:01:10;79056.25;;;-142.35;71.83
8585;BME280;7180;52.742;11.420;2024-01-30T06:03:35;79054.25;;;-142.35;71.69
8585;BME280;7180;52.742;11.420;2024-01-30T06:06:01;79064.31;;;-142.35;71.37
8585;BME280;7180;52.742;11.420;2024-01-30T06:08:26;79070.38;;;-142.35;71.47
8585;BME280;7180;52.742;11.420;2024-01-30T06:10:51;79074.41;;;-142.35;71.37
8585;BME280;7180;52.742;11.420;2024-01-30T06:13:17;79080.47;;;-142.35;71.45
8585;BME280;7180;52.742;11.420;2024-01-30T06:15:42;79090.56;;;-142.35;71.69
8585;BME280;7180;52.742;11.420;2024-01-30T06:18:08;79100.63;;;-142.35;71.74
8585;BME280;7180;52.742;11.420;2024-01-30T06:20:33;79092.56;;;-142.35;71.95
8585;BME280;7180;52.742;11.420;2024-01-30T06:22:58;79088.53;;;-142.35;71.99
8585;BME280;7180;52.742;11.420;2024-01-30T06:25:24;79088.53;;;-142.35;72.22
8585;BME280;7180;52.742;11.420;2024-01-30T06:27:49;79092.56;;;-142.35;71.91
8585;BME280;7180;52.742;11.420;2024-01-30T06:30:14;79088.53;;;-142.35;72.02
8585;BME280;7180;52.742;11.420;2024-01-30T06:32:40;79084.50;;;-142.35;72.11
8585;BME280;7180;52.742;11.420;2024-01-30T06:35:05;79096.59;;;-142.35;72.30
8585;BME280;7180;52.742;11.420;2024-01-30T06:37:31;79092.56;;;-142.35;72.19
8585;BME280;7180;52.742;11.420;2024-01-30T06:39:56;79088.53;;;-142.35;72.46
8585;BME280;7180;52.742;11.420;2024-01-30T06:42:21;79100.63;;;-142.35;72.38
8585;BME280;7180;52.742;11.420;2024-01-30T06:44:47;79102.66;;;-142.35;72.33
8585;BME280;7180;52.742;11.420;2024-01-30T06:47:12;79096.59;;;-142.35;72.32
8585;BME280;7180;52.742;11.420;2024-01-30T06:49:37;79100.63;;;-142.35;72.75
8585;BME280;7180;52.742;11.420;2024-01-30T06:52:06;79100.63;;;-142.35;72.33
8585;BME280;7180;52.742;11.420;2024-01-30T06:54:32;79102.66;;;-142.35;72.77
8585;BME280;7180;52.742;11.420;2024-01-30T06:56:58;79104.69;;;-142.35;72.43
8585;BME280;7180;52.742;11.420;2024-01-30T06:59:23;79098.63;;;-142.35;72.52
8585;BME280;7180;52.742;11.420;2024-01-30T07:01:48;79100.63;;;-142.35;72.75
8585;BME280;7180;52.742;11.420;2024-01-30T07:04:13;79108.72;;;-142.35;72.54
8585;BME280;7180;52.742;11.420;2024-01-30T07:06:39;79134.94;;;-142.35;72.63
8585;BME280;7180;52.742;11.420;2024-01-30T07:09:04;79153.09;;;-142.35;72.91
8585;BME280;7180;52.742;11.420;2024-01-30T07:11:30;79165.19;;;-142.35;72.90
8585;BME280;7180;52.742;11.420;2024-01-30T07:13:55;79167.22;;;-142.35;73.07
8585;BME280;7180;52.742;11.420;2024-01-30T07:16:21;79161.16;;;-142.35;73.18
8585;BME280;7180;52.742;11.420;2024-01-30T07:18:47;79163.19;;;-142.35;73.32
8585;BME280;7180;52.742;11.420;2024-01-30T07:21:12;79155.09;;;-142.35;73.37
8585;BME280;7180;52.742;11.420;2024-01-30T07:23:38;79151.06;;;-142.35;73.21
8585;BME280;7180;52.742;11.420;2024-01-30T07:26:05;79140.97;;;-142.35;72.95
8585;BME280;7180;52.742;11.420;2024-01-30T07:28:31;79140.97;;;-142.35;72.95
8585;BME280;7180;52.742;11.420;2024-01-30T07:30:56;79138.97;;;-142.35;72.88
8585;BME280;7180;52.742;11.420;2024-01-30T07:33:22;79132.91;;;-142.35;72.63
8585;BME280;7180;52.742;11.420;2024-01-30T07:35:47;79118.78;;;-142.35;72.86
8585;BME280;7180;52.742;11.420;2024-01-30T07:38:12;79116.78;;;-142.35;72.60
8585;BME280;7180;52.742;11.420;2024-01-30T07:40:38;79104.69;;;-142.35;72.63
8585;BME280;7180;52.742;11.420;2024-01-30T07:43:03;79104.69;;;-142.35;72.68
8585;BME280;7180;52.742;11.420;2024-01-30T07:45:28;79100.63;;;-142.35;72.41
8585;BME280;7180;52.742;11.420;2024-01-30T07:47:58;79092.56;;;-142.35;72.42
8585;BME280;7180;52.742;11.420;2024-01-30T07:50:24;79086.50;;;-142.35;72.49
8585;BME280;7180;52.742;11.420;2024-01-30T07:52:49;79074.41;;;-142.35;72.40
8585;BME280;7180;52.742;11.420;2024-01-30T07:55:19;79060.28;;;-142.35;72.40
8585;BME280;7180;52.742;11.420;2024-01-30T07:57:45;79052.22;;;-142.35;72.23
8585;BME280;7180;52.742;11.420;2024-01-30T08:00:11;79040.13;;;-142.35;72.28
8585;BME280;7180;52.742;11.420;2024-01-30T08:02:36;79036.09;;;-142.35;72.38
8585;BME280;7180;52.742;11.420;2024-01-30T08:05:02;79021.97;;;-142.35;72.53
8585;BME280;7180;52.742;11.420;2024-01-30T08:07:27;79003.81;;;-142.35;72.27
8585;BME280;7180;52.742;11.420;2024-01-30T08:09:54;78991.72;;;-142.35;72.44
8585;BME280;7180;52.742;11.420;2024-01-30T08:12:20;78977.59;;;-142.35;72.44
8585;BME280;7180;52.742;11.420;2024-01-30T08:14:45;78961.44;;;-142.35;72.23
8585;BME280;7180;52.742;11.420;2024-01-30T08:17:10;78947.34;;;-142.35;72.23
8585;BME280;7180;52.742;11.420;2024-01-30T08:19:35;78931.19;;;-142.35;72.06
8585;BME280;7180;52.742;11.420;2024-01-30T08:22:01;78913.03;;;-142.35;72.24
8585;BME280;7180;52.742;11.420;2024-01-30T08:24:26;78896.91;;;-142.35;72.28
8585;BME280;7180;52.742;11.420;2024-01-30T08:26:51;78890.84;;;-142.35;72.31
8585;BME280;7180;52.742;11.420;2024-01-30T08:29:16;78870.69;;;-142.35;72.18
8585;BME280;7180;52.742;11.420;2024-01-30T08:31:42;78846.47;;;-142.35;71.97
8585;BME280;7180;52.742;11.420;2024-01-30T08:34:07;78838.41;;;-142.35;71.87
8585;BME280;7180;52.742;11.420;2024-01-30T08:36:32;78834.38;;;-142.35;71.74
8585;BME280;7180;52.742;11.420;2024-01-30T08:38:57;78834.38;;;-142.35;71.80
8585;BME280;7180;52.742;11.420;2024-01-30T08:41:23;78798.06;;;-142.35;71.79
8585;BME280;7180;52.742;11.420;2024-01-30T08:43:49;78763.78;;;-142.35;71.57
8585;BME280;7180;52.742;11.420;2024-01-30T08:46:17;78733.53;;;-142.35;71.47
8585;BME280;7180;52.742;11.420;2024-01-30T08:48:43;78717.38;;;-142.35;71.09
8585;BME280;7180;52.742;11.420;2024-01-30T08:51:08;78689.16;;;-142.35;70.80
8585;BME280;7180;52.742;11.420;2024-01-30T08:53:34;78681.06;;;-142.35;70.86
8585;BME280;7180;52.742;11.420;2024-01-30T08:56:00;78648.81;;;-142.35;70.67
8585;BME280;7180;52.742;11.420;2024-01-30T08:58:25;78610.47;;;-142.35;70.57
8585;BME280;7180;52.742;11.420;2024-01-30T09:00:51;78590.31;;;-142.35;69.98
8585;BME280;7180;52.742;11.420;2024-01-30T09:03:17;78564.09;;;-142.35;70.08
8585;BME280;7180;52.742;11.420;2024-01-30T09:05:43;78574.19;;;-142.35;69.95
8585;BME280;7180;52.742;11.420;2024-01-30T09:08:08;78590.31;;;-142.35;69.93
8585;BME280;7180;52.742;11.420;2024-01-30T09:10:33;78608.47;;;-142.35;70.62
8585;BME280;7180;52.742;11.420;2024-01-30T09:12:58;78572.16;;;-142.35;70.13
8585;BME280;7180;52.742;11.420;2024-01-30T09:15:24;78525.78;;;-142.35;69.80
8585;BME280;7180;52.742;11.420;2024-01-30T09:17:49;78519.72;;;-142.35;70.07
8585;BME280;7180;52.742;11.420;2024-01-30T09:20:14;78487.44;;;-142.35;69.52
8585;BME280;7180;52.742;11.420;2024-01-30T09:22:40;78451.16;;;-142.35;69.44
8585;BME280;7180;52.742;11.420;2024-01-30T09:25:05;78418.88;;;-142.35;69.19
8585;BME280;7180;52.742;11.420;2024-01-30T09:27:30;78394.66;;;-142.35;68.76
8585;BME280;7180;52.742;11.420;2024-01-30T09:29:56;78372.47;;;-142.35;68.46
8585;BME280;7180;52.742;11.420;2024-01-30T09:32:21;78364.41;;;-142.35;68.47
8585;BME280;7180;52.742;11.420;2024-01-30T09:34:46;78354.34;;;-142.35;68.50
8585;BME280;7180;52.742;11.420;2024-01-30T09:37:12;78305.94;;;-142.35;68.33
8585;BME280;7180;52.742;11.420;2024-01-30T09:39:39;78261.56;;;-142.35;67.60
8585;BME280;7180;52.742;11.420;2024-01-30T09:42:37;78207.09;;;-142.35;67.55
8585;BME280;7180;52.742;11.420;2024-01-30T09:45:05;78197.03;;;-142.35;67.35
8585;BME280;7180;52.742;11.420;2024-01-30T09:47:32;78197.03;;;-142.35;67.21
8585;BME280;7180;52.742;11.420;2024-01-30T09:49:58;78186.94;;;-142.35;67.32
8585;BME280;7180;52.742;11.420;2024-01-30T09:52:23;78170.81;;;-142.35;67.23
8585;BME280;7180;52.742;11.420;2024-01-30T09:54:51;78160.72;;;-142.35;67.26
8585;BME280;7180;52.742;11.420;2024-01-30T09:57:17;78148.63;;;-142.35;66.97
8585;BME280;7180;52.742;11.420;2024-01-30T09:59:42;78116.34;;;-142.35;66.84
8585;BME280;7180;52.742;11.420;2024-01-30T10:02:09;78076.03;;;-142.35;66.59
8585;BME280;7180;52.742;11.420;2024-01-30T10:04:34;78039.72;;;-142.35;66.42
8585;BME280;7180;52.742;11.420;2024-01-30T10:07:02;78039.72;;;-142.35;66.21
8585;BME280;7180;52.742;11.420;2024-01-30T10:09:27;78003.44;;;-142.35;66.24
8585;BME280;7180;52.742;11.420;2024-01-30T10:11:53;77957.03;;;-142.35;65.65
8585;BME280;7180;52.742;11.420;2024-01-30T10:14:19;77926.78;;;-142.35;65.52
8585;BME280;7180;52.742;11.420;2024-01-30T10:16:46;77898.56;;;-142.35;65.18
8585;BME280;7180;52.742;11.420;2024-01-30T10:19:11;77910.66;;;-142.35;65.41
8585;BME280;7180;52.742;11.420;2024-01-30T10:21:36;77934.84;;;-142.35;65.41
8585;BME280;7180;52.742;11.420;2024-01-30T10:24:02;77975.19;;;-142.35;65.88
8585;BME280;7180;52.742;11.420;2024-01-30T10:26:27;77995.34;;;-142.35;65.86
8585;BME280;7180;52.742;11.420;2024-01-30T10:28:54;78009.47;;;-142.35;66.08
8585;BME280;7180;52.742;11.420;2024-01-30T10:31:19;78045.78;;;-142.35;66.31
8585;BME280;7180;52.742;11.420;2024-01-30T10:33:45;78015.53;;;-142.35;66.30
8585;BME280;7180;52.742;11.420;2024-01-30T10:36:13;77981.25;;;-142.35;66.12
8585;BME280;7180;52.742;11.420;2024-01-30T10:38:42;77991.31;;;-142.35;66.14
8585;BME280;7180;52.742;11.420;2024-01-30T10:41:08;77983.25;;;-142.35;66.19
8585;BME280;7180;52.742;11.420;2024-01-30T10:43:41;77977.22;;;-142.35;66.16
8585;BME280;7180;52.742;11.420;2024-01-30T10:46:19;77959.06;;;-142.35;65.99
8585;BME280;7180;52.742;11.420;2024-01-30T10:48:50;77957.03;;;-142.35;66.04
8585;BME280;7180;52.742;11.420;2024-01-30T10:51:16;77963.09;;;-142.35;66.27
8585;BME280;7180;52.742;11.420;2024-01-30T10:53:43;77942.94;;;-142.35;66.10
8585;BME280;7180;52.742;11.420;2024-01-30T10:56:11;77908.66;;;-142.35;65.79
8585;BME280;7180;52.742;11.420;2024-01-30T10:58:37;77860.25;;;-142.35;65.21
8585;BME280;7180;52.742;11.420;2024-01-30T11:01:03;77854.19;;;-142.35;65.25
8585;BME280;7180;52.742;11.420;2024-01-30T11:03:29;77834.03;;;-142.35;65.14
8585;BME280;7180;52.742;11.420;2024-01-30T11:05:59;77834.03;;;-142.35;65.40
8585;BME280;7180;52.742;11.420;2024-01-30T11:08:25;77821.94;;;-142.35;65.46
8585;BME280;7180;52.742;11.420;2024-01-30T11:10:56;77815.88;;;-142.35;65.23
8585;BME280;7180;52.742;11.420;2024-01-30T11:13:26;77789.66;;;-142.35;64.96
8585;BME280;7180;52.742;11.420;2024-01-30T11:15:52;77789.66;;;-142.35;65.08
8585;BME280;7180;52.742;11.420;2024-01-30T11:18:29;77779.59;;;-142.35;64.96
8585;BME280;7180;52.742;11.420;2024-01-30T11:20:58;77769.50;;;-142.35;64.84
8585;BME280;7180;52.742;11.420;2024-01-30T11:23:26;77759.41;;;-142.35;64.88
8585;BME280;7180;52.742;11.420;2024-01-30T11:25:52;77749.34;;;-142.35;64.77
8585;BME280;7180;52.742;11.420;2024-01-30T11:28:19;77739.25;;;-142.35;64.82
8585;BME280;7180;52.742;11.420;2024-01-30T11:30:46;77704.97;;;-142.35;64.39
8585;BME280;7180;52.742;11.420;2024-01-30T11:33:13;77672.72;;;-142.35;64.27
8585;BME280;7180;52.742;11.420;2024-01-30T11:35:46;77644.47;;;-142.35;64.07
8585;BME280;7180;52.742;11.420;2024-01-30T11:38:13;77584.00;;;-142.35;63.55
8585;BME280;7180;52.742;11.420;2024-01-30T11:40:39;77581.97;;;-142.35;63.63
8585;BME280;7180;52.742;11.420;2024-01-30T11:43:06;77565.84;;;-142.35;63.72
8585;BME280;7180;52.742;11.420;2024-01-30T11:45:33;77555.75;;;-142.35;63.44
8585;BME280;7180;52.742;11.420;2024-01-30T11:47:58;77579.97;;;-142.35;63.90
8585;BME280;7180;52.742;11.420;2024-01-30T11:50:29;77600.13;;;-142.35;63.87
8585;BME280;7180;52.742;11.420;2024-01-30T11:52:54;77602.13;;;-142.35;63.82
8585;BME280;7180;52.742;11.420;2024-01-30T11:55:20;77602.13;;;-142.35;64.09
8585;BME280;7180;52.742;11.420;2024-01-30T11:57:45;77600.13;;;-142.35;63.95
8585;BME280;7180;52.742;11.420;2024-01-30T12:00:19;77590.03;;;-142.35;63.82
8585;BME280;7180;52.742;11.420;2024-01-30T12:02:49;77575.94;;;-142.35;63.71
8585;BME280;7180;52.742;11.420;2024-01-30T12:05:15;77600.13;;;-142.35;63.78
8585;BME280;7180;52.742;11.420;2024-01-30T12:07:44;77628.34;;;-142.35;64.17
8585;BME280;7180;52.742;11.420;2024-01-30T12:10:09;77632.38;;;-142.35;64.26
8585;BME280;7180;52.742;11.420;2024-01-30T12:12:35;77616.25;;;-142.35;64.22
8585;BME280;7180;52.742;11.420;2024-01-30T12:15:00;77592.06;;;-142.35;64.01
8585;BME280;7180;52.742;11.420;2024-01-30T12:17:31;77604.16;;;-142.35;64.21
8585;BME280;7180;52.742;11.420;2024-01-30T12:20:11;77579.97;;;-142.35;63.86
8585;BME280;7180;52.742;11.420;2024-01-30T12:22:41;77557.78;;;-142.35;63.70
8585;BME280;7180;52.742;11.420;2024-01-30T12:25:10;77579.97;;;-142.35;64.06
8585;BME280;7180;52.742;11.420;2024-01-30T12:27:36;77563.81;;;-142.35;64.12
8585;BME280;7180;52.742;11.420;2024-01-30T12:30:05;77547.69;;;-142.35;64.07
8585;BME280;7180;52.742;11.420;2024-01-30T12:32:31;77539.63;;;-142.35;63.95
8585;BME280;7180;52.742;11.420;2024-01-30T12:34:56;77531.56;;;-142.35;63.87
8585;BME280;7180;52.742;11.420;2024-01-30T12:37:24;77507.38;;;-142.35;63.63
8585;BME280;7180;52.742;11.420;2024-01-30T12:39:51;77499.31;;;-142.35;63.53
8585;BME280;7180;52.742;11.420;2024-01-30T12:42:19;77479.16;;;-142.35;63.48
8585;BME280;7180;52.742;11.420;2024-01-30T12:44:44;77463.00;;;-142.35;63.29